EGCN

Robin Hood Doncaster Sheffield Airport

Doncaster, United Kingdom
METAR EGCN 251850Z 20010KT CAVOK 13/06 Q1032
Observed Flight Rules
Sep-25 @ 18:50 UTC (13 minutes ago) Visual Flight Rules
Wind Visibility Clouds
200° at 10 knots 10,000+ meters
  • Clear skies
Temperatures Readings
Current 13°C / 55°F
Dewpoint 6°C / 43°F
Humidity 63%
Altimeter 30.47" Hg
Pressure 1032 hPa
Elevation 17
METAR EGCN 251850Z 20010KT CAVOK 13/06 Q1032
Observed Flight Rules
Sep-25 @ 18:50 UTC
(13 minutes ago)
VFR
Wind Visibility
200° at 10 knots 10,000+ meters
Clouds
  • Clear skies
Temperature Dewpoint
13°C / 55°F 6°C / 43°F
Humidity Altimeter Pressure
63% 30.47" Hg 1032 hPa